sensor_id;sensor_type;location;lat;lon;timestamp;P1;durP1;ratioP1;P2;durP2;ratioP2
20589;SDS011;10453;50.810;12.540;2023-01-25T00:03:57;71.57;;;27.90;;
20589;SDS011;10453;50.810;12.540;2023-01-25T00:08:14;108.60;;;30.77;;
20589;SDS011;10453;50.810;12.540;2023-01-25T00:12:32;90.47;;;28.73;;
20589;SDS011;10453;50.810;12.540;2023-01-25T00:16:49;70.27;;;28.27;;
20589;SDS011;10453;50.810;12.540;2023-01-25T00:21:16;77.07;;;26.88;;
20589;SDS011;10453;50.810;12.540;2023-01-25T00:25:35;74.78;;;26.15;;
20589;SDS011;10453;50.810;12.540;2023-01-25T00:29:52;87.43;;;27.90;;
20589;SDS011;10453;50.810;12.540;2023-01-25T00:38:42;82.47;;;23.70;;
20589;SDS011;10453;50.810;12.540;2023-01-25T00:42:59;62.42;;;23.42;;
20589;SDS011;10453;50.810;12.540;2023-01-25T00:47:16;63.95;;;22.85;;
20589;SDS011;10453;50.810;12.540;2023-01-25T00:51:34;54.80;;;20.73;;
20589;SDS011;10453;50.810;12.540;2023-01-25T00:55:51;43.42;;;18.27;;
20589;SDS011;10453;50.810;12.540;2023-01-25T01:00:09;35.92;;;16.50;;
20589;SDS011;10453;50.810;12.540;2023-01-25T01:04:30;45.35;;;19.40;;
20589;SDS011;10453;50.810;12.540;2023-01-25T01:08:47;43.80;;;19.23;;
20589;SDS011;10453;50.810;12.540;2023-01-25T01:13:05;49.97;;;20.50;;
20589;SDS011;10453;50.810;12.540;2023-01-25T01:17:23;46.28;;;19.10;;
20589;SDS011;10453;50.810;12.540;2023-01-25T01:21:40;39.45;;;18.10;;
20589;SDS011;10453;50.810;12.540;2023-01-25T01:25:58;51.80;;;21.30;;
20589;SDS011;10453;50.810;12.540;2023-01-25T01:30:19;48.78;;;21.58;;
20589;SDS011;10453;50.810;12.540;2023-01-25T01:34:37;57.42;;;23.08;;
20589;SDS011;10453;50.810;12.540;2023-01-25T01:38:54;46.38;;;21.30;;
20589;SDS011;10453;50.810;12.540;2023-01-25T01:43:21;47.97;;;19.03;;
20589;SDS011;10453;50.810;12.540;2023-01-25T01:47:40;47.15;;;20.95;;
20589;SDS011;10453;50.810;12.540;2023-01-25T01:52:02;37.78;;;17.50;;
20589;SDS011;10453;50.810;12.540;2023-01-25T01:56:26;35.45;;;16.65;;
20589;SDS011;10453;50.810;12.540;2023-01-25T02:00:47;40.72;;;18.90;;
20589;SDS011;10453;50.810;12.540;2023-01-25T02:05:05;38.33;;;18.13;;
20589;SDS011;10453;50.810;12.540;2023-01-25T02:09:28;33.40;;;15.82;;
20589;SDS011;10453;50.810;12.540;2023-01-25T02:13:47;35.80;;;17.20;;
20589;SDS011;10453;50.810;12.540;2023-01-25T02:18:05;51.83;;;23.25;;
20589;SDS011;10453;50.810;12.540;2023-01-25T02:22:24;67.33;;;27.20;;
20589;SDS011;10453;50.810;12.540;2023-01-25T02:26:47;51.80;;;21.52;;
20589;SDS011;10453;50.810;12.540;2023-01-25T02:31:04;50.85;;;21.67;;
20589;SDS011;10453;50.810;12.540;2023-01-25T02:35:23;51.42;;;22.05;;
20589;SDS011;10453;50.810;12.540;2023-01-25T02:39:52;50.17;;;20.95;;
20589;SDS011;10453;50.810;12.540;2023-01-25T02:44:29;46.97;;;22.17;;
20589;SDS011;10453;50.810;12.540;2023-01-25T02:48:50;89.40;;;29.05;;
20589;SDS011;10453;50.810;12.540;2023-01-25T02:53:07;99.00;;;34.13;;
20589;SDS011;10453;50.810;12.540;2023-01-25T02:57:24;102.32;;;33.08;;
20589;SDS011;10453;50.810;12.540;2023-01-25T03:01:41;93.22;;;31.98;;
20589;SDS011;10453;50.810;12.540;2023-01-25T03:05:59;66.73;;;25.47;;
20589;SDS011;10453;50.810;12.540;2023-01-25T03:10:16;63.97;;;25.23;;
20589;SDS011;10453;50.810;12.540;2023-01-25T03:14:33;68.95;;;25.10;;
20589;SDS011;10453;50.810;12.540;2023-01-25T03:18:53;61.55;;;24.58;;
20589;SDS011;10453;50.810;12.540;2023-01-25T03:23:11;62.47;;;25.25;;
20589;SDS011;10453;50.810;12.540;2023-01-25T03:27:29;63.15;;;26.08;;
20589;SDS011;10453;50.810;12.540;2023-01-25T03:31:46;68.30;;;25.02;;
20589;SDS011;10453;50.810;12.540;2023-01-25T03:36:03;55.15;;;22.70;;
20589;SDS011;10453;50.810;12.540;2023-01-25T03:44:38;54.22;;;23.20;;
20589;SDS011;10453;50.810;12.540;2023-01-25T03:48:55;62.55;;;25.30;;
20589;SDS011;10453;50.810;12.540;2023-01-25T03:53:12;61.47;;;24.40;;
20589;SDS011;10453;50.810;12.540;2023-01-25T03:57:42;60.17;;;24.40;;
20589;SDS011;10453;50.810;12.540;2023-01-25T04:02:00;57.43;;;24.50;;
20589;SDS011;10453;50.810;12.540;2023-01-25T04:06:18;69.10;;;26.63;;
20589;SDS011;10453;50.810;12.540;2023-01-25T04:10:35;64.65;;;25.42;;
20589;SDS011;10453;50.810;12.540;2023-01-25T04:14:52;71.40;;;27.50;;
20589;SDS011;10453;50.810;12.540;2023-01-25T04:19:10;66.00;;;26.17;;
20589;SDS011;10453;50.810;12.540;2023-01-25T04:23:27;68.90;;;26.45;;
20589;SDS011;10453;50.810;12.540;2023-01-25T04:27:44;72.78;;;27.17;;
20589;SDS011;10453;50.810;12.540;2023-01-25T04:32:01;66.88;;;25.05;;
20589;SDS011;10453;50.810;12.540;2023-01-25T04:36:18;66.20;;;25.13;;
20589;SDS011;10453;50.810;12.540;2023-01-25T04:40:36;64.10;;;24.98;;
20589;SDS011;10453;50.810;12.540;2023-01-25T04:44:53;63.95;;;25.08;;
20589;SDS011;10453;50.810;12.540;2023-01-25T04:49:10;68.65;;;27.05;;
20589;SDS011;10453;50.810;12.540;2023-01-25T04:53:27;69.20;;;27.08;;
20589;SDS011;10453;50.810;12.540;2023-01-25T04:57:44;67.60;;;25.23;;
20589;SDS011;10453;50.810;12.540;2023-01-25T05:02:04;65.65;;;26.05;;
20589;SDS011;10453;50.810;12.540;2023-01-25T05:06:21;68.85;;;27.02;;
20589;SDS011;10453;50.810;12.540;2023-01-25T05:10:38;74.22;;;26.85;;
20589;SDS011;10453;50.810;12.540;2023-01-25T05:14:55;68.47;;;26.70;;
20589;SDS011;10453;50.810;12.540;2023-01-25T05:19:12;74.75;;;27.70;;
20589;SDS011;10453;50.810;12.540;2023-01-25T05:23:29;65.20;;;26.75;;
20589;SDS011;10453;50.810;12.540;2023-01-25T05:27:47;69.63;;;27.25;;
20589;SDS011;10453;50.810;12.540;2023-01-25T05:32:08;66.78;;;27.42;;
20589;SDS011;10453;50.810;12.540;2023-01-25T05:36:27;71.45;;;28.55;;
20589;SDS011;10453;50.810;12.540;2023-01-25T05:40:44;70.32;;;26.77;;
20589;SDS011;10453;50.810;12.540;2023-01-25T05:45:01;65.60;;;27.33;;
20589;SDS011;10453;50.810;12.540;2023-01-25T05:49:19;84.17;;;31.27;;
20589;SDS011;10453;50.810;12.540;2023-01-25T05:53:36;72.82;;;28.92;;
20589;SDS011;10453;50.810;12.540;2023-01-25T05:57:56;77.05;;;28.17;;
20589;SDS011;10453;50.810;12.540;2023-01-25T06:02:13;77.43;;;27.40;;
20589;SDS011;10453;50.810;12.540;2023-01-25T06:06:30;73.32;;;29.92;;
20589;SDS011;10453;50.810;12.540;2023-01-25T06:10:48;69.95;;;28.08;;
20589;SDS011;10453;50.810;12.540;2023-01-25T06:15:05;70.68;;;28.33;;
20589;SDS011;10453;50.810;12.540;2023-01-25T06:19:23;73.25;;;28.67;;
20589;SDS011;10453;50.810;12.540;2023-01-25T06:23:40;72.85;;;29.88;;
20589;SDS011;10453;50.810;12.540;2023-01-25T06:28:00;76.30;;;30.42;;
20589;SDS011;10453;50.810;12.540;2023-01-25T06:32:17;69.13;;;27.85;;
20589;SDS011;10453;50.810;12.540;2023-01-25T06:36:34;78.97;;;30.90;;
20589;SDS011;10453;50.810;12.540;2023-01-25T06:40:52;80.18;;;30.65;;
20589;SDS011;10453;50.810;12.540;2023-01-25T06:45:09;78.18;;;29.25;;
20589;SDS011;10453;50.810;12.540;2023-01-25T06:49:27;78.07;;;29.83;;
20589;SDS011;10453;50.810;12.540;2023-01-25T06:53:44;85.68;;;31.98;;
20589;SDS011;10453;50.810;12.540;2023-01-25T06:58:02;81.95;;;29.92;;
20589;SDS011;10453;50.810;12.540;2023-01-25T07:02:19;80.63;;;30.92;;
20589;SDS011;10453;50.810;12.540;2023-01-25T07:06:37;98.20;;;38.83;;
20589;SDS011;10453;50.810;12.540;2023-01-25T07:10:55;83.37;;;32.37;;
20589;SDS011;10453;50.810;12.540;2023-01-25T07:15:13;78.35;;;29.80;;
20589;SDS011;10453;50.810;12.540;2023-01-25T07:19:30;77.18;;;31.85;;
20589;SDS011;10453;50.810;12.540;2023-01-25T07:23:48;84.93;;;33.10;;
20589;SDS011;10453;50.810;12.540;2023-01-25T07:28:06;92.40;;;35.13;;
20589;SDS011;10453;50.810;12.540;2023-01-25T07:32:23;83.97;;;33.03;;
20589;SDS011;10453;50.810;12.540;2023-01-25T07:36:40;86.97;;;36.22;;
20589;SDS011;10453;50.810;12.540;2023-01-25T07:40:59;86.93;;;35.97;;
20589;SDS011;10453;50.810;12.540;2023-01-25T07:45:16;74.47;;;32.38;;
20589;SDS011;10453;50.810;12.540;2023-01-25T07:49:33;81.10;;;32.08;;
20589;SDS011;10453;50.810;12.540;2023-01-25T07:53:51;81.15;;;32.20;;
20589;SDS011;10453;50.810;12.540;2023-01-25T07:58:10;78.38;;;31.38;;
20589;SDS011;10453;50.810;12.540;2023-01-25T08:02:27;83.30;;;32.22;;
20589;SDS011;10453;50.810;12.540;2023-01-25T08:06:44;78.35;;;32.28;;
20589;SDS011;10453;50.810;12.540;2023-01-25T08:11:09;76.77;;;31.67;;
20589;SDS011;10453;50.810;12.540;2023-01-25T08:15:29;75.40;;;32.30;;
20589;SDS011;10453;50.810;12.540;2023-01-25T08:19:47;74.53;;;31.10;;
20589;SDS011;10453;50.810;12.540;2023-01-25T08:24:04;88.95;;;32.55;;
20589;SDS011;10453;50.810;12.540;2023-01-25T08:28:23;81.15;;;33.10;;
20589;SDS011;10453;50.810;12.540;2023-01-25T08:32:40;73.95;;;32.33;;
20589;SDS011;10453;50.810;12.540;2023-01-25T08:36:57;76.15;;;32.60;;
20589;SDS011;10453;50.810;12.540;2023-01-25T08:41:15;75.22;;;32.90;;
20589;SDS011;10453;50.810;12.540;2023-01-25T08:45:33;87.53;;;33.53;;
20589;SDS011;10453;50.810;12.540;2023-01-25T08:49:52;80.88;;;31.05;;
20589;SDS011;10453;50.810;12.540;2023-01-25T08:54:11;90.28;;;32.40;;
20589;SDS011;10453;50.810;12.540;2023-01-25T08:58:28;71.53;;;29.30;;
20589;SDS011;10453;50.810;12.540;2023-01-25T09:02:47;72.03;;;30.02;;
20589;SDS011;10453;50.810;12.540;2023-01-25T09:07:04;60.42;;;27.77;;
20589;SDS011;10453;50.810;12.540;2023-01-25T09:11:21;64.47;;;25.73;;
20589;SDS011;10453;50.810;12.540;2023-01-25T09:15:38;65.75;;;27.75;;
20589;SDS011;10453;50.810;12.540;2023-01-25T09:19:55;66.72;;;28.40;;
20589;SDS011;10453;50.810;12.540;2023-01-25T09:24:13;62.50;;;27.73;;
20589;SDS011;10453;50.810;12.540;2023-01-25T09:28:31;65.20;;;29.60;;
20589;SDS011;10453;50.810;12.540;2023-01-25T09:32:49;66.18;;;27.70;;
20589;SDS011;10453;50.810;12.540;2023-01-25T09:37:06;62.85;;;27.83;;
20589;SDS011;10453;50.810;12.540;2023-01-25T09:41:27;67.70;;;28.73;;
20589;SDS011;10453;50.810;12.540;2023-01-25T09:45:57;64.32;;;28.13;;
20589;SDS011;10453;50.810;12.540;2023-01-25T09:50:24;63.33;;;28.50;;
20589;SDS011;10453;50.810;12.540;2023-01-25T09:54:48;68.47;;;30.02;;
20589;SDS011;10453;50.810;12.540;2023-01-25T09:59:13;65.13;;;28.70;;
20589;SDS011;10453;50.810;12.540;2023-01-25T10:03:37;73.55;;;31.25;;
20589;SDS011;10453;50.810;12.540;2023-01-25T10:12:46;68.57;;;31.65;;
20589;SDS011;10453;50.810;12.540;2023-01-25T10:17:05;62.88;;;29.38;;
20589;SDS011;10453;50.810;12.540;2023-01-25T10:21:30;63.55;;;30.15;;
20589;SDS011;10453;50.810;12.540;2023-01-25T10:25:58;59.25;;;28.27;;
20589;SDS011;10453;50.810;12.540;2023-01-25T10:30:26;48.97;;;23.13;;
20589;SDS011;10453;50.810;12.540;2023-01-25T10:34:49;57.53;;;26.15;;
20589;SDS011;10453;50.810;12.540;2023-01-25T10:39:12;53.53;;;25.73;;
20589;SDS011;10453;50.810;12.540;2023-01-25T10:43:30;56.30;;;25.53;;
20589;SDS011;10453;50.810;12.540;2023-01-25T10:47:54;53.20;;;26.58;;
20589;SDS011;10453;50.810;12.540;2023-01-25T10:52:24;64.93;;;29.27;;
20589;SDS011;10453;50.810;12.540;2023-01-25T10:56:43;67.20;;;30.38;;
20589;SDS011;10453;50.810;12.540;2023-01-25T11:01:02;56.10;;;27.00;;
20589;SDS011;10453;50.810;12.540;2023-01-25T11:05:34;56.92;;;27.55;;
20589;SDS011;10453;50.810;12.540;2023-01-25T11:09:53;52.00;;;25.85;;
20589;SDS011;10453;50.810;12.540;2023-01-25T11:14:14;48.05;;;21.80;;
20589;SDS011;10453;50.810;12.540;2023-01-25T11:18:33;42.63;;;21.48;;
20589;SDS011;10453;50.810;12.540;2023-01-25T11:22:52;43.13;;;21.52;;
20589;SDS011;10453;50.810;12.540;2023-01-25T11:31:38;46.53;;;22.48;;
20589;SDS011;10453;50.810;12.540;2023-01-25T11:36:15;37.50;;;17.58;;
20589;SDS011;10453;50.810;12.540;2023-01-25T11:40:43;41.95;;;21.73;;
20589;SDS011;10453;50.810;12.540;2023-01-25T11:50:10;38.58;;;19.55;;
20589;SDS011;10453;50.810;12.540;2023-01-25T11:54:35;31.58;;;17.35;;
20589;SDS011;10453;50.810;12.540;2023-01-25T12:13:48;27.10;;;15.70;;
20589;SDS011;10453;50.810;12.540;2023-01-25T12:27:33;21.52;;;11.38;;
20589;SDS011;10453;50.810;12.540;2023-01-25T12:36:42;19.65;;;10.85;;
20589;SDS011;10453;50.810;12.540;2023-01-25T12:41:02;16.35;;;10.60;;
20589;SDS011;10453;50.810;12.540;2023-01-25T12:45:31;18.85;;;10.75;;
20589;SDS011;10453;50.810;12.540;2023-01-25T12:49:52;18.25;;;11.02;;
20589;SDS011;10453;50.810;12.540;2023-01-25T12:54:37;16.98;;;9.95;;
20589;SDS011;10453;50.810;12.540;2023-01-25T12:58:59;17.20;;;10.13;;
20589;SDS011;10453;50.810;12.540;2023-01-25T13:08:10;23.27;;;15.73;;
20589;SDS011;10453;50.810;12.540;2023-01-25T13:13:20;17.20;;;10.07;;
20589;SDS011;10453;50.810;12.540;2023-01-25T13:17:37;22.05;;;10.40;;
20589;SDS011;10453;50.810;12.540;2023-01-25T13:21:56;17.88;;;11.38;;
20589;SDS011;10453;50.810;12.540;2023-01-25T13:30:38;19.35;;;12.15;;
20589;SDS011;10453;50.810;12.540;2023-01-25T13:35:23;17.48;;;10.55;;
20589;SDS011;10453;50.810;12.540;2023-01-25T13:39:48;19.52;;;11.88;;
20589;SDS011;10453;50.810;12.540;2023-01-25T13:44:11;20.90;;;11.10;;
20589;SDS011;10453;50.810;12.540;2023-01-25T13:48:43;19.40;;;11.90;;
20589;SDS011;10453;50.810;12.540;2023-01-25T13:57:31;19.48;;;11.38;;
20589;SDS011;10453;50.810;12.540;2023-01-25T14:01:48;19.42;;;11.45;;
20589;SDS011;10453;50.810;12.540;2023-01-25T14:10:31;18.92;;;11.68;;
20589;SDS011;10453;50.810;12.540;2023-01-25T14:14:48;21.35;;;11.70;;
20589;SDS011;10453;50.810;12.540;2023-01-25T14:19:19;21.00;;;12.55;;
20589;SDS011;10453;50.810;12.540;2023-01-25T14:23:38;18.88;;;11.65;;
20589;SDS011;10453;50.810;12.540;2023-01-25T14:27:56;21.60;;;12.60;;
20589;SDS011;10453;50.810;12.540;2023-01-25T14:32:16;19.75;;;11.30;;
20589;SDS011;10453;50.810;12.540;2023-01-25T14:36:36;19.15;;;12.40;;
20589;SDS011;10453;50.810;12.540;2023-01-25T14:40:54;29.20;;;14.80;;
20589;SDS011;10453;50.810;12.540;2023-01-25T14:45:14;18.00;;;10.48;;
20589;SDS011;10453;50.810;12.540;2023-01-25T14:49:34;19.23;;;10.70;;
20589;SDS011;10453;50.810;12.540;2023-01-25T14:53:56;20.15;;;10.93;;
20589;SDS011;10453;50.810;12.540;2023-01-25T14:58:22;22.40;;;12.90;;
20589;SDS011;10453;50.810;12.540;2023-01-25T15:02:45;29.40;;;16.67;;
20589;SDS011;10453;50.810;12.540;2023-01-25T15:07:05;26.50;;;15.48;;
20589;SDS011;10453;50.810;12.540;2023-01-25T15:11:33;27.88;;;16.17;;
20589;SDS011;10453;50.810;12.540;2023-01-25T15:15:54;22.50;;;13.88;;
20589;SDS011;10453;50.810;12.540;2023-01-25T15:20:33;22.00;;;13.45;;
20589;SDS011;10453;50.810;12.540;2023-01-25T15:24:53;21.38;;;14.20;;
20589;SDS011;10453;50.810;12.540;2023-01-25T15:29:23;25.65;;;14.23;;
20589;SDS011;10453;50.810;12.540;2023-01-25T15:33:44;21.38;;;12.75;;
20589;SDS011;10453;50.810;12.540;2023-01-25T15:38:01;23.40;;;14.20;;
20589;SDS011;10453;50.810;12.540;2023-01-25T15:42:18;24.55;;;15.65;;
20589;SDS011;10453;50.810;12.540;2023-01-25T15:46:36;27.55;;;15.50;;
20589;SDS011;10453;50.810;12.540;2023-01-25T15:50:59;26.20;;;15.95;;
20589;SDS011;10453;50.810;12.540;2023-01-25T15:55:16;26.02;;;15.57;;
20589;SDS011;10453;50.810;12.540;2023-01-25T15:59:33;28.10;;;16.13;;
20589;SDS011;10453;50.810;12.540;2023-01-25T16:03:52;25.60;;;15.50;;
20589;SDS011;10453;50.810;12.540;2023-01-25T16:08:16;27.90;;;16.10;;
20589;SDS011;10453;50.810;12.540;2023-01-25T16:12:34;28.65;;;16.85;;
20589;SDS011;10453;50.810;12.540;2023-01-25T16:16:52;35.73;;;20.40;;
20589;SDS011;10453;50.810;12.540;2023-01-25T16:21:10;31.95;;;17.88;;
20589;SDS011;10453;50.810;12.540;2023-01-25T16:25:28;31.80;;;19.83;;
20589;SDS011;10453;50.810;12.540;2023-01-25T16:29:45;48.33;;;27.13;;
20589;SDS011;10453;50.810;12.540;2023-01-25T16:34:02;28.92;;;17.92;;
20589;SDS011;10453;50.810;12.540;2023-01-25T16:38:20;38.13;;;21.88;;
20589;SDS011;10453;50.810;12.540;2023-01-25T16:42:37;38.08;;;20.88;;
20589;SDS011;10453;50.810;12.540;2023-01-25T16:46:54;34.60;;;21.05;;
20589;SDS011;10453;50.810;12.540;2023-01-25T16:51:13;33.97;;;19.80;;
20589;SDS011;10453;50.810;12.540;2023-01-25T16:55:41;38.45;;;19.95;;
20589;SDS011;10453;50.810;12.540;2023-01-25T16:59:58;42.67;;;24.83;;
20589;SDS011;10453;50.810;12.540;2023-01-25T17:04:18;42.70;;;25.42;;
20589;SDS011;10453;50.810;12.540;2023-01-25T17:08:35;37.13;;;22.35;;
20589;SDS011;10453;50.810;12.540;2023-01-25T17:12:53;35.40;;;21.50;;
20589;SDS011;10453;50.810;12.540;2023-01-25T17:17:10;40.63;;;21.95;;
20589;SDS011;10453;50.810;12.540;2023-01-25T17:21:27;38.00;;;21.08;;
20589;SDS011;10453;50.810;12.540;2023-01-25T17:25:44;33.33;;;19.77;;
20589;SDS011;10453;50.810;12.540;2023-01-25T17:30:01;37.13;;;20.02;;
20589;SDS011;10453;50.810;12.540;2023-01-25T17:34:19;30.23;;;18.27;;
20589;SDS011;10453;50.810;12.540;2023-01-25T17:38:37;33.85;;;18.95;;
20589;SDS011;10453;50.810;12.540;2023-01-25T17:42:55;35.83;;;19.83;;
20589;SDS011;10453;50.810;12.540;2023-01-25T17:47:12;33.83;;;18.90;;
20589;SDS011;10453;50.810;12.540;2023-01-25T17:51:29;35.15;;;20.05;;
20589;SDS011;10453;50.810;12.540;2023-01-25T17:55:49;34.75;;;20.30;;
20589;SDS011;10453;50.810;12.540;2023-01-25T18:00:06;36.47;;;20.67;;
20589;SDS011;10453;50.810;12.540;2023-01-25T18:04:27;37.53;;;22.17;;
20589;SDS011;10453;50.810;12.540;2023-01-25T18:08:45;36.90;;;21.30;;
20589;SDS011;10453;50.810;12.540;2023-01-25T18:13:03;33.08;;;19.38;;
20589;SDS011;10453;50.810;12.540;2023-01-25T18:17:20;36.42;;;20.90;;
20589;SDS011;10453;50.810;12.540;2023-01-25T18:21:38;36.45;;;21.00;;
20589;SDS011;10453;50.810;12.540;2023-01-25T18:25:57;35.75;;;20.60;;
20589;SDS011;10453;50.810;12.540;2023-01-25T18:30:33;35.42;;;19.85;;
20589;SDS011;10453;50.810;12.540;2023-01-25T18:34:54;37.88;;;21.13;;
20589;SDS011;10453;50.810;12.540;2023-01-25T18:39:12;34.95;;;20.27;;
20589;SDS011;10453;50.810;12.540;2023-01-25T18:43:29;34.53;;;19.63;;
20589;SDS011;10453;50.810;12.540;2023-01-25T18:47:46;42.35;;;22.60;;
20589;SDS011;10453;50.810;12.540;2023-01-25T18:52:03;40.30;;;22.55;;
20589;SDS011;10453;50.810;12.540;2023-01-25T18:56:27;45.25;;;22.80;;
20589;SDS011;10453;50.810;12.540;2023-01-25T19:00:47;44.33;;;23.65;;
20589;SDS011;10453;50.810;12.540;2023-01-25T19:05:04;45.13;;;24.55;;
20589;SDS011;10453;50.810;12.540;2023-01-25T19:09:22;40.80;;;23.43;;
20589;SDS011;10453;50.810;12.540;2023-01-25T19:13:41;44.83;;;25.58;;
20589;SDS011;10453;50.810;12.540;2023-01-25T19:22:15;41.60;;;24.75;;
20589;SDS011;10453;50.810;12.540;2023-01-25T19:26:33;50.00;;;26.23;;
20589;SDS011;10453;50.810;12.540;2023-01-25T19:30:50;44.15;;;24.80;;
20589;SDS011;10453;50.810;12.540;2023-01-25T19:35:07;59.70;;;31.63;;
20589;SDS011;10453;50.810;12.540;2023-01-25T19:39:25;50.75;;;29.23;;
20589;SDS011;10453;50.810;12.540;2023-01-25T19:43:42;46.95;;;25.77;;
20589;SDS011;10453;50.810;12.540;2023-01-25T19:47:59;45.10;;;25.63;;
20589;SDS011;10453;50.810;12.540;2023-01-25T19:52:18;43.03;;;25.77;;
20589;SDS011;10453;50.810;12.540;2023-01-25T19:56:36;55.65;;;29.58;;
20589;SDS011;10453;50.810;12.540;2023-01-25T20:01:03;108.95;;;58.05;;
20589;SDS011;10453;50.810;12.540;2023-01-25T20:05:27;46.65;;;24.63;;
20589;SDS011;10453;50.810;12.540;2023-01-25T20:09:44;43.22;;;23.75;;
20589;SDS011;10453;50.810;12.540;2023-01-25T20:14:02;46.33;;;26.05;;
20589;SDS011;10453;50.810;12.540;2023-01-25T20:18:21;47.60;;;26.75;;
20589;SDS011;10453;50.810;12.540;2023-01-25T20:22:38;45.65;;;25.60;;
20589;SDS011;10453;50.810;12.540;2023-01-25T20:26:55;47.65;;;26.42;;
20589;SDS011;10453;50.810;12.540;2023-01-25T20:31:21;45.38;;;26.98;;
20589;SDS011;10453;50.810;12.540;2023-01-25T20:35:40;42.47;;;26.23;;
20589;SDS011;10453;50.810;12.540;2023-01-25T20:39:57;42.83;;;23.83;;
20589;SDS011;10453;50.810;12.540;2023-01-25T20:44:15;43.05;;;24.73;;
20589;SDS011;10453;50.810;12.540;2023-01-25T20:48:33;45.22;;;25.80;;
20589;SDS011;10453;50.810;12.540;2023-01-25T20:52:52;41.35;;;23.42;;
20589;SDS011;10453;50.810;12.540;2023-01-25T20:57:09;39.75;;;23.30;;
20589;SDS011;10453;50.810;12.540;2023-01-25T21:01:27;43.80;;;24.83;;
20589;SDS011;10453;50.810;12.540;2023-01-25T21:05:52;44.70;;;25.27;;
20589;SDS011;10453;50.810;12.540;2023-01-25T21:10:13;44.95;;;25.13;;
20589;SDS011;10453;50.810;12.540;2023-01-25T21:14:31;48.63;;;26.70;;
20589;SDS011;10453;50.810;12.540;2023-01-25T21:23:10;49.13;;;26.63;;
20589;SDS011;10453;50.810;12.540;2023-01-25T21:27:27;46.95;;;26.25;;
20589;SDS011;10453;50.810;12.540;2023-01-25T21:31:45;51.38;;;28.48;;
20589;SDS011;10453;50.810;12.540;2023-01-25T21:36:03;52.03;;;27.30;;
20589;SDS011;10453;50.810;12.540;2023-01-25T21:40:25;46.42;;;24.83;;
20589;SDS011;10453;50.810;12.540;2023-01-25T21:44:42;47.75;;;26.45;;
20589;SDS011;10453;50.810;12.540;2023-01-25T21:49:18;45.65;;;24.55;;
20589;SDS011;10453;50.810;12.540;2023-01-25T21:53:54;47.45;;;25.70;;
20589;SDS011;10453;50.810;12.540;2023-01-25T21:58:11;48.83;;;26.77;;
20589;SDS011;10453;50.810;12.540;2023-01-25T22:06:46;50.10;;;25.83;;
20589;SDS011;10453;50.810;12.540;2023-01-25T22:11:10;45.45;;;25.77;;
20589;SDS011;10453;50.810;12.540;2023-01-25T22:15:27;44.13;;;24.00;;
20589;SDS011;10453;50.810;12.540;2023-01-25T22:19:44;42.60;;;25.85;;
20589;SDS011;10453;50.810;12.540;2023-01-25T22:24:03;41.72;;;23.45;;
20589;SDS011;10453;50.810;12.540;2023-01-25T22:28:21;48.17;;;25.55;;
20589;SDS011;10453;50.810;12.540;2023-01-25T22:32:38;49.45;;;27.30;;
20589;SDS011;10453;50.810;12.540;2023-01-25T22:36:55;53.72;;;27.20;;
20589;SDS011;10453;50.810;12.540;2023-01-25T22:41:13;44.40;;;24.00;;
20589;SDS011;10453;50.810;12.540;2023-01-25T22:45:32;48.80;;;25.95;;
20589;SDS011;10453;50.810;12.540;2023-01-25T22:49:49;44.95;;;22.63;;
20589;SDS011;10453;50.810;12.540;2023-01-25T22:54:06;45.13;;;23.73;;
20589;SDS011;10453;50.810;12.540;2023-01-25T22:58:23;42.63;;;22.33;;
20589;SDS011;10453;50.810;12.540;2023-01-25T23:02:40;44.90;;;23.17;;
20589;SDS011;10453;50.810;12.540;2023-01-25T23:06:57;45.33;;;22.48;;
20589;SDS011;10453;50.810;12.540;2023-01-25T23:11:28;45.83;;;23.10;;
20589;SDS011;10453;50.810;12.540;2023-01-25T23:15:47;45.40;;;23.92;;
20589;SDS011;10453;50.810;12.540;2023-01-25T23:20:05;47.85;;;23.67;;
20589;SDS011;10453;50.810;12.540;2023-01-25T23:24:24;55.58;;;24.65;;
20589;SDS011;10453;50.810;12.540;2023-01-25T23:28:47;48.63;;;23.60;;
20589;SDS011;10453;50.810;12.540;2023-01-25T23:33:11;47.55;;;23.65;;
20589;SDS011;10453;50.810;12.540;2023-01-25T23:37:28;49.38;;;25.33;;
20589;SDS011;10453;50.810;12.540;2023-01-25T23:41:45;50.03;;;23.88;;
20589;SDS011;10453;50.810;12.540;2023-01-25T23:50:21;55.17;;;25.80;;
20589;SDS011;10453;50.810;12.540;2023-01-25T23:54:38;54.90;;;25.70;;
20589;SDS011;10453;50.810;12.540;2023-01-25T23:58:55;49.78;;;24.25;;
